Time;durP1;ratioP1;P1;durP2;ratioP2;P2;SDS_P1;SDS_P2;PMS_P1;PMS_P2;Temp;Humidity;BMP_temperature;BMP_pressure;BME280_temperature;BME280_humidity;BME280_pressure;Samples;Min_cycle;Max_cycle;Signal;HPM_P1;HPM_P2
2023/07/08 00:00:00;;;;;;;4.20;2.93;;;;;;;;;;5070820;28;20202;-52
2023/07/08 00:02:28;;;;;;;4.17;2.90;;;;;;;;;;5070517;28;20264;-53
2023/07/08 00:04:54;;;;;;;4.77;2.80;;;;;;;;;;5070665;28;20219;-51
2023/07/08 00:07:21;;;;;;;3.73;2.67;;;;;;;;;;5070943;28;20207;-53
2023/07/08 00:09:47;;;;;;;5.00;2.97;;;;;;;;;;5070741;28;20375;-51
2023/07/08 00:12:13;;;;;;;3.47;2.67;;;;;;;;;;5070678;28;20227;-51
2023/07/08 00:14:39;;;;;;;3.23;2.80;;;;;;;;;;5070182;28;20204;-51
2023/07/08 00:17:09;;;;;;;3.93;3.03;;;;;;;;;;5069867;28;20203;-53
2023/07/08 00:19:36;;;;;;;3.37;3.07;;;;;;;;;;5070797;28;20487;-51
2023/07/08 00:22:08;;;;;;;4.23;2.70;;;;;;;;;;5070496;28;20204;-51
2023/07/08 00:24:34;;;;;;;2.80;2.60;;;;;;;;;;5070669;28;20202;-52
2023/07/08 00:27:00;;;;;;;4.90;2.80;;;;;;;;;;5068562;28;20196;-52
2023/07/08 00:29:26;;;;;;;4.37;2.97;;;;;;;;;;5069194;28;20784;-52
2023/07/08 00:31:52;;;;;;;3.73;2.90;;;;;;;;;;5070488;28;20226;-52
2023/07/08 00:34:18;;;;;;;3.03;2.70;;;;;;;;;;5070723;28;20237;-52
2023/07/08 00:36:45;;;;;;;3.50;2.97;;;;;;;;;;5070574;28;20576;-53
2023/07/08 00:39:14;;;;;;;3.03;2.73;;;;;;;;;;5070647;28;20206;-54
2023/07/08 00:41:41;;;;;;;2.67;2.47;;;;;;;;;;5070570;28;20185;-54
2023/07/08 00:44:09;;;;;;;3.30;3.00;;;;;;;;;;5070553;28;20290;-54
2023/07/08 00:46:41;;;;;;;3.73;3.00;;;;;;;;;;5070707;28;20202;-54
2023/07/08 00:49:14;;;;;;;4.67;2.97;;;;;;;;;;5070515;28;20687;-54
2023/07/08 00:51:40;;;;;;;3.20;2.90;;;;;;;;;;5070398;28;20219;-54
2023/07/08 00:54:10;;;;;;;3.63;2.70;;;;;;;;;;5070475;28;20611;-54
2023/07/08 00:56:38;;;;;;;3.20;2.90;;;;;;;;;;5070471;28;20208;-54
2023/07/08 00:59:06;;;;;;;3.13;2.80;;;;;;;;;;5070555;28;20209;-53
2023/07/08 01:01:34;;;;;;;4.23;3.23;;;;;;;;;;5070532;28;20270;-54
2023/07/08 01:04:03;;;;;;;3.33;2.87;;;;;;;;;;5070436;28;20560;-54
2023/07/08 01:06:31;;;;;;;3.63;2.90;;;;;;;;;;5070486;28;20218;-54
2023/07/08 01:08:58;;;;;;;4.03;2.70;;;;;;;;;;5070600;28;20677;-54
2023/07/08 01:11:25;;;;;;;3.20;2.90;;;;;;;;;;5070375;28;20279;-54
2023/07/08 01:13:53;;;;;;;3.47;3.00;;;;;;;;;;5070286;28;20202;-54
2023/07/08 01:16:19;;;;;;;3.60;3.00;;;;;;;;;;5070322;28;20199;-54
2023/07/08 01:18:52;;;;;;;5.47;3.20;;;;;;;;;;5070087;28;20193;-54
2023/07/08 01:21:29;;;;;;;6.37;2.70;;;;;;;;;;5070357;28;20206;-54
2023/07/08 01:23:57;;;;;;;3.37;2.73;;;;;;;;;;5070150;28;20209;-54
2023/07/08 01:26:25;;;;;;;3.80;2.63;;;;;;;;;;5070536;28;20192;-54
2023/07/08 01:28:51;;;;;;;6.87;3.23;;;;;;;;;;5072548;28;20225;-54
2023/07/08 01:31:17;;;;;;;3.23;2.70;;;;;;;;;;5073782;28;20206;-54
2023/07/08 01:33:43;;;;;;;3.87;3.03;;;;;;;;;;5073724;28;20260;-54
2023/07/08 01:36:09;;;;;;;3.77;3.33;;;;;;;;;;5073816;28;20247;-54
2023/07/08 01:38:35;;;;;;;3.10;2.80;;;;;;;;;;5073826;28;20202;-54
2023/07/08 01:41:02;;;;;;;10.70;3.30;;;;;;;;;;5073722;28;20202;-54
2023/07/08 01:43:28;;;;;;;3.40;3.10;;;;;;;;;;5073437;28;20253;-54
2023/07/08 01:45:55;;;;;;;3.67;3.13;;;;;;;;;;5073455;28;20206;-54
2023/07/08 01:48:22;;;;;;;4.20;2.90;;;;;;;;;;5073577;28;20194;-54
2023/07/08 01:50:50;;;;;;;3.37;3.07;;;;;;;;;;5073326;28;20588;-54
2023/07/08 01:53:17;;;;;;;4.70;3.00;;;;;;;;;;5073412;28;20288;-54
2023/07/08 01:55:43;;;;;;;4.37;2.93;;;;;;;;;;5073296;28;20296;-54
2023/07/08 01:58:10;;;;;;;3.40;3.00;;;;;;;;;;5073410;28;20668;-54
2023/07/08 02:00:36;;;;;;;3.13;2.63;;;;;;;;;;5073249;28;20292;-54
2023/07/08 02:03:02;;;;;;;3.33;3.03;;;;;;;;;;5073426;28;20193;-54
2023/07/08 02:05:28;;;;;;;3.43;2.90;;;;;;;;;;5073210;28;20237;-54
2023/07/08 02:07:56;;;;;;;3.80;2.97;;;;;;;;;;5073146;28;20221;-54
2023/07/08 02:10:22;;;;;;;5.37;3.07;;;;;;;;;;5073145;28;20223;-54
2023/07/08 02:12:48;;;;;;;3.43;2.73;;;;;;;;;;5072899;28;20717;-54
2023/07/08 02:15:15;;;;;;;4.63;2.90;;;;;;;;;;5073079;28;20193;-54
2023/07/08 02:17:41;;;;;;;3.67;3.30;;;;;;;;;;5072975;28;20256;-54
2023/07/08 02:20:08;;;;;;;4.27;3.00;;;;;;;;;;5072905;28;20212;-54
2023/07/08 02:22:34;;;;;;;4.30;3.03;;;;;;;;;;5072932;28;20664;-54
2023/07/08 02:25:00;;;;;;;3.47;2.93;;;;;;;;;;5072869;28;20197;-53
2023/07/08 02:27:26;;;;;;;6.40;2.97;;;;;;;;;;5072790;28;20270;-54
2023/07/08 02:29:52;;;;;;;3.80;3.00;;;;;;;;;;5072724;28;20234;-54
2023/07/08 02:32:20;;;;;;;4.03;3.57;;;;;;;;;;5072699;28;20237;-54
2023/07/08 02:34:46;;;;;;;4.30;3.00;;;;;;;;;;5072586;28;20223;-54
2023/07/08 02:37:12;;;;;;;3.20;2.90;;;;;;;;;;5072708;28;20250;-54
2023/07/08 02:39:38;;;;;;;4.80;3.30;;;;;;;;;;5071593;28;20197;-54
2023/07/08 02:42:04;;;;;;;3.27;2.97;;;;;;;;;;5072242;28;20236;-54
2023/07/08 02:44:30;;;;;;;3.30;3.00;;;;;;;;;;5072563;28;20245;-54
2023/07/08 02:46:56;;;;;;;4.50;2.80;;;;;;;;;;5072354;28;20670;-54
2023/07/08 02:49:24;;;;;;;4.10;3.00;;;;;;;;;;5072474;28;20239;-54
2023/07/08 02:51:50;;;;;;;4.13;3.10;;;;;;;;;;5072126;28;20537;-54
2023/07/08 02:54:15;;;;;;;4.47;3.40;;;;;;;;;;5072327;28;20849;-54
2023/07/08 02:56:41;;;;;;;3.50;3.20;;;;;;;;;;5072081;28;20204;-54
2023/07/08 02:59:07;;;;;;;4.37;3.43;;;;;;;;;;5072277;28;20254;-54
2023/07/08 03:01:41;;;;;;;4.57;3.20;;;;;;;;;;5072120;28;20297;-54
2023/07/08 03:04:08;;;;;;;3.97;3.20;;;;;;;;;;5072176;28;20270;-54
2023/07/08 03:06:35;;;;;;;3.97;3.03;;;;;;;;;;5072084;28;20191;-54
2023/07/08 03:09:01;;;;;;;3.53;3.20;;;;;;;;;;5072019;28;20193;-54
2023/07/08 03:11:27;;;;;;;3.60;3.20;;;;;;;;;;5071588;28;20277;-55
2023/07/08 03:13:53;;;;;;;4.87;3.27;;;;;;;;;;5070933;28;20215;-55
2023/07/08 03:16:19;;;;;;;6.20;3.17;;;;;;;;;;5071554;28;20254;-55
2023/07/08 03:18:46;;;;;;;3.50;3.20;;;;;;;;;;5071655;28;20203;-55
2023/07/08 03:21:13;;;;;;;4.37;3.37;;;;;;;;;;5071793;28;20675;-54
2023/07/08 03:23:40;;;;;;;3.57;3.27;;;;;;;;;;5071435;28;20204;-54
2023/07/08 03:26:06;;;;;;;3.50;3.20;;;;;;;;;;5071836;28;20208;-54
2023/07/08 03:28:32;;;;;;;3.23;2.93;;;;;;;;;;5071516;28;20690;-55
2023/07/08 03:30:58;;;;;;;4.53;3.00;;;;;;;;;;5071450;28;20200;-54
2023/07/08 03:33:24;;;;;;;4.90;3.43;;;;;;;;;;5071374;28;20771;-55
2023/07/08 03:35:50;;;;;;;3.67;3.33;;;;;;;;;;5071444;28;20257;-54
2023/07/08 03:38:16;;;;;;;3.50;2.93;;;;;;;;;;5071508;28;20192;-55
2023/07/08 03:40:44;;;;;;;3.10;2.90;;;;;;;;;;5071275;28;20195;-54
2023/07/08 03:43:10;;;;;;;3.47;3.17;;;;;;;;;;5071059;28;20232;-54
2023/07/08 03:45:36;;;;;;;3.90;3.20;;;;;;;;;;5071341;28;20196;-54
2023/07/08 03:48:02;;;;;;;3.33;3.07;;;;;;;;;;5071480;28;20607;-54
2023/07/08 03:50:28;;;;;;;3.60;3.30;;;;;;;;;;5071055;28;20256;-54
2023/07/08 03:52:55;;;;;;;3.33;2.93;;;;;;;;;;5071316;28;20228;-54
2023/07/08 03:55:21;;;;;;;4.00;3.43;;;;;;;;;;5071312;28;20191;-54
2023/07/08 03:57:49;;;;;;;4.93;3.30;;;;;;;;;;5071140;28;20204;-54
2023/07/08 04:00:15;;;;;;;4.60;3.30;;;;;;;;;;5071155;28;20226;-54
2023/07/08 04:02:41;;;;;;;6.73;3.40;;;;;;;;;;5071040;28;20188;-54
2023/07/08 04:05:08;;;;;;;4.83;3.13;;;;;;;;;;5070943;28;20219;-53
2023/07/08 04:07:34;;;;;;;4.03;3.60;;;;;;;;;;5071065;28;20483;-53
2023/07/08 04:10:00;;;;;;;3.07;2.77;;;;;;;;;;5070970;28;20617;-53
2023/07/08 04:12:27;;;;;;;3.80;3.50;;;;;;;;;;5070850;28;20219;-53
2023/07/08 04:14:55;;;;;;;3.40;3.10;;;;;;;;;;5070861;28;20200;-52
2023/07/08 04:17:23;;;;;;;5.30;3.37;;;;;;;;;;5070918;28;20192;-53
2023/07/08 04:19:49;;;;;;;3.67;3.23;;;;;;;;;;5070580;28;20635;-54
2023/07/08 04:22:15;;;;;;;3.60;3.27;;;;;;;;;;5070975;28;20752;-54
2023/07/08 04:24:41;;;;;;;4.53;3.63;;;;;;;;;;5070800;28;20199;-54
2023/07/08 04:27:09;;;;;;;4.47;3.03;;;;;;;;;;5070773;28;20201;-53
2023/07/08 04:29:35;;;;;;;5.23;3.60;;;;;;;;;;5070805;28;20201;-54
2023/07/08 04:32:02;;;;;;;4.23;3.20;;;;;;;;;;5070633;28;20234;-55
2023/07/08 04:34:28;;;;;;;3.70;3.37;;;;;;;;;;5070709;28;20691;-54
2023/07/08 04:36:54;;;;;;;4.13;3.27;;;;;;;;;;5070592;28;20204;-54
2023/07/08 04:39:20;;;;;;;4.10;3.13;;;;;;;;;;5070640;28;20205;-55
2023/07/08 04:41:46;;;;;;;4.23;3.23;;;;;;;;;;5070340;28;20190;-54
2023/07/08 04:44:12;;;;;;;3.33;3.03;;;;;;;;;;5070676;28;20618;-53
2023/07/08 04:46:40;;;;;;;3.70;3.30;;;;;;;;;;5070507;28;20555;-54
2023/07/08 04:49:09;;;;;;;4.87;3.23;;;;;;;;;;5070624;28;20217;-54
2023/07/08 04:51:35;;;;;;;4.20;3.70;;;;;;;;;;5070545;28;20236;-54
2023/07/08 04:54:01;;;;;;;6.90;3.80;;;;;;;;;;5070443;28;20233;-54
2023/07/08 04:56:35;;;;;;;4.13;3.40;;;;;;;;;;5070431;28;20296;-54
2023/07/08 04:59:01;;;;;;;5.77;3.50;;;;;;;;;;5070623;28;20201;-54
2023/07/08 05:01:27;;;;;;;5.90;3.37;;;;;;;;;;5070448;28;20201;-54
2023/07/08 05:03:53;;;;;;;3.90;3.50;;;;;;;;;;5073243;28;20218;-54
2023/07/08 05:06:21;;;;;;;4.77;3.10;;;;;;;;;;5074365;28;20237;-55
2023/07/08 05:08:47;;;;;;;5.23;3.33;;;;;;;;;;5074228;28;20212;-54
2023/07/08 05:11:13;;;;;;;4.67;3.80;;;;;;;;;;5074241;28;20189;-54
2023/07/08 05:13:39;;;;;;;3.97;3.57;;;;;;;;;;5074125;28;20765;-55
2023/07/08 05:16:05;;;;;;;7.17;3.90;;;;;;;;;;5074222;28;20205;-54
2023/07/08 05:18:31;;;;;;;4.20;3.60;;;;;;;;;;5074067;28;20741;-55
2023/07/08 05:20:57;;;;;;;4.60;3.30;;;;;;;;;;5073904;28;20295;-54
2023/07/08 05:23:24;;;;;;;3.10;2.80;;;;;;;;;;5074103;28;20195;-55
2023/07/08 05:25:50;;;;;;;4.17;3.47;;;;;;;;;;5073813;28;20237;-54
2023/07/08 05:28:16;;;;;;;4.03;3.43;;;;;;;;;;5073886;28;20206;-54
2023/07/08 05:30:42;;;;;;;3.83;3.40;;;;;;;;;;5074129;28;20209;-54
2023/07/08 05:33:08;;;;;;;3.87;3.27;;;;;;;;;;5073739;28;20276;-54
2023/07/08 05:35:34;;;;;;;3.43;3.03;;;;;;;;;;5073844;28;20201;-55
2023/07/08 05:38:01;;;;;;;3.63;3.20;;;;;;;;;;5073652;28;20561;-54
2023/07/08 05:40:29;;;;;;;4.30;2.90;;;;;;;;;;5073656;28;20232;-55
2023/07/08 05:42:55;;;;;;;3.67;3.37;;;;;;;;;;5073271;28;20233;-55
2023/07/08 05:45:21;;;;;;;4.53;3.27;;;;;;;;;;5073627;28;20201;-55
2023/07/08 05:47:47;;;;;;;4.83;3.60;;;;;;;;;;5073652;28;20191;-55
2023/07/08 05:50:13;;;;;;;4.10;3.37;;;;;;;;;;5073441;28;20294;-55
2023/07/08 05:52:39;;;;;;;3.30;3.00;;;;;;;;;;5073379;28;20520;-54
2023/07/08 05:55:05;;;;;;;4.70;3.23;;;;;;;;;;5073501;28;20615;-54
2023/07/08 05:57:33;;;;;;;4.43;3.07;;;;;;;;;;5073348;28;20210;-54
2023/07/08 05:59:59;;;;;;;4.03;3.13;;;;;;;;;;5073384;28;20207;-54
2023/07/08 06:02:25;;;;;;;3.90;3.20;;;;;;;;;;5073451;28;20601;-55
2023/07/08 06:04:51;;;;;;;3.63;3.33;;;;;;;;;;5072992;28;20696;-54
2023/07/08 06:07:18;;;;;;;3.40;3.10;;;;;;;;;;5073226;28;20191;-55
2023/07/08 06:09:44;;;;;;;4.10;3.70;;;;;;;;;;5073125;28;20199;-54
2023/07/08 06:12:10;;;;;;;3.77;3.37;;;;;;;;;;5072894;28;20685;-56
2023/07/08 06:14:38;;;;;;;3.70;3.33;;;;;;;;;;5073269;28;20187;-56
2023/07/08 06:17:05;;;;;;;4.07;3.40;;;;;;;;;;5072732;28;20199;-54
2023/07/08 06:19:31;;;;;;;4.50;3.03;;;;;;;;;;5073503;28;20282;-56
2023/07/08 06:21:57;;;;;;;4.10;3.13;;;;;;;;;;5072888;28;20191;-54
2023/07/08 06:24:23;;;;;;;4.20;3.60;;;;;;;;;;5072673;28;20588;-54
2023/07/08 06:26:50;;;;;;;3.93;3.20;;;;;;;;;;5072597;28;20206;-54
2023/07/08 06:29:15;;;;;;;4.27;3.20;;;;;;;;;;5072876;28;20253;-54
2023/07/08 06:31:43;;;;;;;4.30;3.30;;;;;;;;;;5072655;28;20196;-54
2023/07/08 06:34:09;;;;;;;3.53;3.23;;;;;;;;;;5072586;28;20708;-54
2023/07/08 06:36:35;;;;;;;3.80;3.20;;;;;;;;;;5072669;28;20196;-55
2023/07/08 06:39:01;;;;;;;4.40;3.33;;;;;;;;;;5072500;28;20279;-54
2023/07/08 06:41:27;;;;;;;4.90;3.27;;;;;;;;;;5072468;28;20187;-55
2023/07/08 06:43:53;;;;;;;3.27;2.97;;;;;;;;;;5072232;28;20231;-54
2023/07/08 06:46:20;;;;;;;4.00;3.27;;;;;;;;;;5072420;28;20204;-55
2023/07/08 06:48:48;;;;;;;3.10;2.87;;;;;;;;;;5072228;28;20546;-55
2023/07/08 06:51:14;;;;;;;4.33;3.93;;;;;;;;;;5072389;28;20207;-55
2023/07/08 06:53:40;;;;;;;4.57;3.30;;;;;;;;;;5072020;28;20227;-56
2023/07/08 06:56:06;;;;;;;3.60;3.30;;;;;;;;;;5072063;28;20577;-53
2023/07/08 06:58:32;;;;;;;4.20;3.50;;;;;;;;;;5072090;28;20191;-53
2023/07/08 07:00:58;;;;;;;3.30;3.00;;;;;;;;;;5072223;28;20280;-54
2023/07/08 07:03:24;;;;;;;3.57;3.27;;;;;;;;;;5072110;28;20199;-55
2023/07/08 07:05:51;;;;;;;3.03;2.83;;;;;;;;;;5071913;28;20217;-54
2023/07/08 07:08:17;;;;;;;3.37;2.90;;;;;;;;;;5072076;28;20197;-55
2023/07/08 07:10:43;;;;;;;4.00;3.03;;;;;;;;;;5071896;28;20201;-54
2023/07/08 07:13:10;;;;;;;4.13;3.20;;;;;;;;;;5071605;28;20694;-54
2023/07/08 07:15:36;;;;;;;3.67;3.10;;;;;;;;;;5071871;28;20624;-53
2023/07/08 07:18:02;;;;;;;5.53;3.03;;;;;;;;;;5071722;28;20201;-54
2023/07/08 07:20:28;;;;;;;3.30;3.00;;;;;;;;;;5071861;28;20234;-54
2023/07/08 07:22:56;;;;;;;3.50;3.20;;;;;;;;;;5071658;28;20663;-54
2023/07/08 07:25:22;;;;;;;3.67;3.10;;;;;;;;;;5071267;28;20201;-54
2023/07/08 07:27:48;;;;;;;3.33;2.90;;;;;;;;;;5071451;28;20255;-54
2023/07/08 07:30:14;;;;;;;3.50;3.00;;;;;;;;;;5071529;28;20201;-55
2023/07/08 07:32:41;;;;;;;3.43;2.90;;;;;;;;;;5071472;28;20305;-54
2023/07/08 07:35:07;;;;;;;3.10;2.80;;;;;;;;;;5071622;28;20603;-54
2023/07/08 07:37:33;;;;;;;4.63;3.30;;;;;;;;;;5071418;28;20271;-54
2023/07/08 07:40:01;;;;;;;3.80;3.20;;;;;;;;;;5071340;28;20213;-54
2023/07/08 07:42:27;;;;;;;5.10;2.97;;;;;;;;;;5071113;28;20230;-55
2023/07/08 07:44:53;;;;;;;3.30;3.00;;;;;;;;;;5071186;28;20656;-54
2023/07/08 07:47:19;;;;;;;3.53;3.00;;;;;;;;;;5071057;28;20238;-54
2023/07/08 07:49:45;;;;;;;3.47;2.80;;;;;;;;;;5071136;28;20198;-55
2023/07/08 07:52:11;;;;;;;5.47;3.20;;;;;;;;;;5071046;28;20227;-55
2023/07/08 07:54:37;;;;;;;3.13;2.80;;;;;;;;;;5071202;28;20198;-54
2023/07/08 07:57:05;;;;;;;2.90;2.67;;;;;;;;;;5070722;28;20223;-54
2023/07/08 07:59:31;;;;;;;3.53;3.00;;;;;;;;;;5070942;28;20230;-54
2023/07/08 08:01:57;;;;;;;5.30;3.00;;;;;;;;;;5070937;28;20231;-54
2023/07/08 08:04:23;;;;;;;4.33;3.20;;;;;;;;;;5070979;28;20275;-53
2023/07/08 08:06:49;;;;;;;3.03;2.70;;;;;;;;;;5070990;28;20299;-53
2023/07/08 08:09:15;;;;;;;3.47;2.97;;;;;;;;;;5071005;28;20267;-53
2023/07/08 08:11:41;;;;;;;3.00;2.70;;;;;;;;;;5070692;28;20197;-53
2023/07/08 08:14:08;;;;;;;3.37;3.07;;;;;;;;;;5070980;28;20201;-53
2023/07/08 08:16:34;;;;;;;3.97;2.93;;;;;;;;;;5070979;28;20215;-53
2023/07/08 08:19:00;;;;;;;3.27;3.00;;;;;;;;;;5070757;28;20261;-53
2023/07/08 08:21:26;;;;;;;3.57;3.10;;;;;;;;;;5070826;28;20200;-54
2023/07/08 08:23:52;;;;;;;4.17;3.07;;;;;;;;;;5070818;28;20234;-53
2023/07/08 08:26:18;;;;;;;5.73;2.77;;;;;;;;;;5070643;28;20207;-54
2023/07/08 08:28:44;;;;;;;3.93;2.93;;;;;;;;;;5070738;28;20201;-54
2023/07/08 08:31:12;;;;;;;3.17;2.73;;;;;;;;;;5070621;28;20204;-54
2023/07/08 08:33:38;;;;;;;3.97;3.03;;;;;;;;;;5070451;28;20712;-54
2023/07/08 08:36:04;;;;;;;3.50;2.77;;;;;;;;;;5070512;28;20691;-53
2023/07/08 08:38:30;;;;;;;3.77;2.70;;;;;;;;;;5072965;28;20237;-53
2023/07/08 08:40:56;;;;;;;4.83;2.90;;;;;;;;;;5074515;28;20230;-54
2023/07/08 08:43:23;;;;;;;3.10;2.80;;;;;;;;;;5074642;28;20237;-51
2023/07/08 08:45:53;;;;;;;3.10;2.90;;;;;;;;;;5074503;28;20206;-49
2023/07/08 08:48:21;;;;;;;5.33;2.93;;;;;;;;;;5074365;28;20680;-52
2023/07/08 08:50:51;;;;;;;3.90;3.23;;;;;;;;;;5074546;28;20217;-55
2023/07/08 08:53:18;;;;;;;3.43;2.70;;;;;;;;;;5074286;28;20590;-53
2023/07/08 08:55:44;;;;;;;4.70;2.90;;;;;;;;;;5074265;28;20191;-53
2023/07/08 08:58:18;;;;;;;3.47;2.90;;;;;;;;;;5074893;28;20250;-54
2023/07/08 09:00:47;;;;;;;3.20;2.77;;;;;;;;;;5074755;28;20203;-54
2023/07/08 09:03:15;;;;;;;3.63;2.80;;;;;;;;;;5074742;28;20287;-54
2023/07/08 09:05:43;;;;;;;6.50;3.00;;;;;;;;;;5072451;28;20698;-55
2023/07/08 09:08:13;;;;;;;3.77;2.53;;;;;;;;;;5074011;28;20224;-54
2023/07/08 09:10:43;;;;;;;3.27;2.67;;;;;;;;;;5073978;28;20200;-54
2023/07/08 09:13:12;;;;;;;3.43;2.70;;;;;;;;;;5073911;28;20252;-54
2023/07/08 09:15:38;;;;;;;3.87;2.97;;;;;;;;;;5072580;28;20610;-54
2023/07/08 09:18:12;;;;;;;5.23;3.00;;;;;;;;;;5073912;28;20202;-54
2023/07/08 09:20:56;;;;;;;3.30;2.73;;;;;;;;;;5073981;28;20289;-54
2023/07/08 09:23:26;;;;;;;4.73;3.00;;;;;;;;;;5073999;28;20194;-54
2023/07/08 09:25:54;;;;;;;6.00;2.80;;;;;;;;;;5073588;28;20197;-54
2023/07/08 09:28:20;;;;;;;6.60;2.87;;;;;;;;;;5073808;28;20203;-54
2023/07/08 09:30:48;;;;;;;3.77;2.70;;;;;;;;;;5073716;28;20249;-54
2023/07/08 09:33:14;;;;;;;4.27;3.10;;;;;;;;;;5073629;28;20693;-55
2023/07/08 09:35:41;;;;;;;3.23;2.80;;;;;;;;;;5073826;28;20199;-54
2023/07/08 09:38:08;;;;;;;4.43;2.87;;;;;;;;;;5073521;28;20198;-54
2023/07/08 09:40:35;;;;;;;4.67;2.70;;;;;;;;;;5073543;28;20214;-54
2023/07/08 09:43:02;;;;;;;4.00;2.90;;;;;;;;;;5073315;28;20678;-54
2023/07/08 09:45:28;;;;;;;4.07;3.00;;;;;;;;;;5073594;28;20658;-55
2023/07/08 09:47:55;;;;;;;3.00;2.80;;;;;;;;;;5073612;28;20197;-54
2023/07/08 09:50:23;;;;;;;4.07;2.80;;;;;;;;;;5073151;28;20229;-53
2023/07/08 09:52:50;;;;;;;3.53;2.93;;;;;;;;;;5073381;28;20236;-54
2023/07/08 09:55:17;;;;;;;3.90;2.80;;;;;;;;;;5073633;28;20204;-54
2023/07/08 09:57:45;;;;;;;3.17;2.87;;;;;;;;;;5071841;28;20885;-53
2023/07/08 10:00:12;;;;;;;5.47;3.03;;;;;;;;;;5073096;28;20206;-53
2023/07/08 10:02:41;;;;;;;5.43;2.70;;;;;;;;;;5072727;28;20282;-53
2023/07/08 10:05:13;;;;;;;4.93;3.10;;;;;;;;;;5073074;28;20226;-54
2023/07/08 10:07:39;;;;;;;3.80;2.60;;;;;;;;;;5073191;28;20198;-53
2023/07/08 10:10:08;;;;;;;3.43;2.60;;;;;;;;;;5072813;28;20572;-54
2023/07/08 10:12:35;;;;;;;3.20;2.90;;;;;;;;;;5072849;28;20233;-54
2023/07/08 10:15:06;;;;;;;3.70;3.00;;;;;;;;;;5072854;28;20206;-53
2023/07/08 10:17:33;;;;;;;3.90;2.80;;;;;;;;;;5073262;28;20291;-53
2023/07/08 10:19:59;;;;;;;3.57;2.83;;;;;;;;;;5072827;28;20259;-53
2023/07/08 10:22:38;;;;;;;3.50;2.70;;;;;;;;;;5073030;28;20187;-54
2023/07/08 10:25:10;;;;;;;4.83;3.10;;;;;;;;;;5072732;28;20195;-54
2023/07/08 10:27:40;;;;;;;3.03;2.73;;;;;;;;;;5072619;28;20195;-53
2023/07/08 10:30:13;;;;;;;3.73;2.80;;;;;;;;;;5072627;28;20215;-54
2023/07/08 10:32:44;;;;;;;3.97;3.10;;;;;;;;;;5072575;28;20222;-54
2023/07/08 10:35:15;;;;;;;4.43;2.63;;;;;;;;;;5072435;28;20250;-54
2023/07/08 10:37:47;;;;;;;4.93;2.80;;;;;;;;;;5072474;28;20235;-54
2023/07/08 10:40:19;;;;;;;3.20;2.90;;;;;;;;;;5072380;28;20241;-53
2023/07/08 10:42:50;;;;;;;3.03;2.60;;;;;;;;;;5072109;28;20227;-53
2023/07/08 10:45:19;;;;;;;3.10;2.80;;;;;;;;;;5072334;28;20263;-54
2023/07/08 10:47:54;;;;;;;5.17;2.83;;;;;;;;;;5072227;28;20290;-53
2023/07/08 10:50:29;;;;;;;4.67;3.10;;;;;;;;;;5072304;28;20215;-53
2023/07/08 10:53:00;;;;;;;3.87;3.03;;;;;;;;;;5072073;28;20327;-53
2023/07/08 10:55:37;;;;;;;5.87;2.83;;;;;;;;;;5072078;28;20655;-54
2023/07/08 10:58:14;;;;;;;5.03;2.90;;;;;;;;;;5071945;28;20734;-53
2023/07/08 11:00:46;;;;;;;4.50;2.90;;;;;;;;;;5071177;28;20231;-53
2023/07/08 11:03:31;;;;;;;4.03;2.77;;;;;;;;;;5072012;28;20203;-54
2023/07/08 11:06:00;;;;;;;3.97;3.20;;;;;;;;;;5071774;28;20228;-54
2023/07/08 11:08:28;;;;;;;4.30;3.07;;;;;;;;;;5071970;28;20281;-54
2023/07/08 11:10:58;;;;;;;4.73;3.23;;;;;;;;;;5071851;28;20291;-54
2023/07/08 11:13:25;;;;;;;4.00;3.20;;;;;;;;;;5071804;28;20249;-54
2023/07/08 11:15:56;;;;;;;4.40;3.07;;;;;;;;;;5071462;28;20288;-54
2023/07/08 11:18:26;;;;;;;5.17;3.30;;;;;;;;;;5072829;28;20197;-54
2023/07/08 11:20:54;;;;;;;5.20;3.20;;;;;;;;;;5072831;28;20190;-52
2023/07/08 11:23:24;;;;;;;3.80;3.50;;;;;;;;;;5071854;28;20271;-55
2023/07/08 11:25:51;;;;;;;5.10;3.40;;;;;;;;;;5071699;28;20193;-53
2023/07/08 11:28:19;;;;;;;3.83;3.40;;;;;;;;;;5071931;28;20668;-53
2023/07/08 11:30:46;;;;;;;4.87;3.67;;;;;;;;;;5071495;28;20201;-53
2023/07/08 11:33:14;;;;;;;4.90;3.37;;;;;;;;;;5071319;28;20223;-53
2023/07/08 11:35:42;;;;;;;4.73;3.50;;;;;;;;;;5071434;28;20210;-53
2023/07/08 11:38:12;;;;;;;3.97;3.23;;;;;;;;;;5071235;28;20202;-53
2023/07/08 11:40:50;;;;;;;4.70;3.40;;;;;;;;;;5071273;28;20208;-54
2023/07/08 11:43:16;;;;;;;4.23;3.67;;;;;;;;;;5071103;28;20272;-54
2023/07/08 11:45:44;;;;;;;4.20;3.80;;;;;;;;;;5071269;28;20202;-54
2023/07/08 11:48:12;;;;;;;4.23;3.47;;;;;;;;;;5071038;28;20229;-54
2023/07/08 11:50:42;;;;;;;6.03;3.53;;;;;;;;;;5070959;28;20214;-54
2023/07/08 11:53:10;;;;;;;5.93;3.80;;;;;;;;;;5071267;28;20218;-54
2023/07/08 11:55:37;;;;;;;6.00;3.90;;;;;;;;;;5071519;28;20311;-54
2023/07/08 11:58:07;;;;;;;4.43;3.73;;;;;;;;;;5071529;28;20203;-54
2023/07/08 12:00:34;;;;;;;4.40;3.67;;;;;;;;;;5071561;28;20247;-54
2023/07/08 12:03:04;;;;;;;4.80;3.43;;;;;;;;;;5071355;28;20320;-54
2023/07/08 12:05:34;;;;;;;5.53;3.13;;;;;;;;;;5071434;28;20593;-54
2023/07/08 12:08:03;;;;;;;3.67;3.33;;;;;;;;;;5071289;28;20240;-53
2023/07/08 12:10:33;;;;;;;3.93;3.53;;;;;;;;;;5071257;28;20620;-53
2023/07/08 12:12:59;;;;;;;4.63;3.70;;;;;;;;;;5070992;28;20760;-53
2023/07/08 12:15:26;;;;;;;4.03;3.63;;;;;;;;;;5071411;28;20203;-54
2023/07/08 12:17:53;;;;;;;4.50;3.57;;;;;;;;;;5071001;28;20659;-53
2023/07/08 12:20:22;;;;;;;3.90;3.27;;;;;;;;;;5071315;28;20209;-53
2023/07/08 12:22:48;;;;;;;4.13;3.40;;;;;;;;;;5071201;28;20194;-55
2023/07/08 12:25:16;;;;;;;3.40;3.10;;;;;;;;;;5071005;28;20206;-53
2023/07/08 12:27:42;;;;;;;3.60;3.30;;;;;;;;;;5071270;28;20260;-53
2023/07/08 12:30:10;;;;;;;5.37;3.67;;;;;;;;;;5071080;28;20195;-54
2023/07/08 12:32:36;;;;;;;4.17;3.60;;;;;;;;;;5070901;28;20231;-53
2023/07/08 12:35:04;;;;;;;3.70;3.40;;;;;;;;;;5071043;28;20191;-54
2023/07/08 12:37:31;;;;;;;4.30;3.30;;;;;;;;;;5071087;28;20202;-54
2023/07/08 12:40:03;;;;;;;4.30;3.90;;;;;;;;;;5070909;28;20566;-53
2023/07/08 12:42:31;;;;;;;3.80;3.47;;;;;;;;;;5070900;28;20284;-54
2023/07/08 12:44:57;;;;;;;4.10;3.70;;;;;;;;;;5070918;28;20208;-53
2023/07/08 12:47:23;;;;;;;4.80;3.60;;;;;;;;;;5071916;28;20196;-53
2023/07/08 12:49:50;;;;;;;4.93;3.73;;;;;;;;;;5071029;28;20200;-54
2023/07/08 12:52:20;;;;;;;3.53;3.23;;;;;;;;;;5070808;28;20204;-54
2023/07/08 12:54:46;;;;;;;5.23;3.47;;;;;;;;;;5070762;28;20202;-53
2023/07/08 12:57:12;;;;;;;3.57;3.10;;;;;;;;;;5070879;28;20198;-53
2023/07/08 12:59:39;;;;;;;4.90;3.73;;;;;;;;;;5070897;28;20206;-53
2023/07/08 13:02:09;;;;;;;4.10;3.70;;;;;;;;;;5070814;28;20207;-53
2023/07/08 13:04:37;;;;;;;3.87;3.47;;;;;;;;;;5070696;28;20219;-52
2023/07/08 13:07:03;;;;;;;5.17;3.30;;;;;;;;;;5070717;28;20203;-53
2023/07/08 13:09:37;;;;;;;5.40;3.40;;;;;;;;;;5070770;28;20250;-53
2023/07/08 13:12:06;;;;;;;3.80;3.50;;;;;;;;;;5070612;28;20186;-53
2023/07/08 13:14:32;;;;;;;4.00;3.60;;;;;;;;;;5070880;28;20263;-53
2023/07/08 13:16:59;;;;;;;3.67;3.33;;;;;;;;;;5070654;28;20206;-53
2023/07/08 13:19:26;;;;;;;4.07;3.67;;;;;;;;;;5070754;28;20202;-53
2023/07/08 13:21:52;;;;;;;5.23;3.93;;;;;;;;;;5070596;28;20197;-54
2023/07/08 13:24:19;;;;;;;4.03;3.67;;;;;;;;;;5072353;28;20208;-53
2023/07/08 13:26:46;;;;;;;5.10;3.17;;;;;;;;;;5074195;28;20669;-54
2023/07/08 13:29:15;;;;;;;4.70;3.80;;;;;;;;;;5074168;28;20646;-54
2023/07/08 13:31:42;;;;;;;5.97;3.67;;;;;;;;;;5074235;28;20233;-54
2023/07/08 13:34:15;;;;;;;5.43;3.73;;;;;;;;;;5074016;28;20253;-54
2023/07/08 13:36:43;;;;;;;4.10;3.70;;;;;;;;;;5074239;28;20203;-54
2023/07/08 13:39:10;;;;;;;4.13;3.73;;;;;;;;;;5074023;28;20201;-54
2023/07/08 13:41:36;;;;;;;4.93;4.43;;;;;;;;;;5074060;28;20206;-54
2023/07/08 13:44:06;;;;;;;5.53;4.00;;;;;;;;;;5073637;28;20241;-54
2023/07/08 13:46:34;;;;;;;5.40;4.30;;;;;;;;;;5074050;28;20205;-54
2023/07/08 13:49:01;;;;;;;4.97;4.17;;;;;;;;;;5073789;28;20215;-54
2023/07/08 13:51:32;;;;;;;4.87;4.37;;;;;;;;;;5073909;28;20195;-54
2023/07/08 13:53:59;;;;;;;5.20;4.80;;;;;;;;;;5073763;28;20361;-54
2023/07/08 13:56:28;;;;;;;5.60;5.03;;;;;;;;;;5073862;28;20195;-54
2023/07/08 13:59:01;;;;;;;6.07;5.43;;;;;;;;;;5073735;28;20722;-54
2023/07/08 14:01:27;;;;;;;5.60;4.77;;;;;;;;;;5073879;28;20203;-54
2023/07/08 14:03:55;;;;;;;6.23;4.57;;;;;;;;;;5073651;28;20246;-54
2023/07/08 14:06:22;;;;;;;5.90;4.63;;;;;;;;;;5073800;28;20249;-54
2023/07/08 14:08:49;;;;;;;4.70;4.30;;;;;;;;;;5073585;28;20261;-54
2023/07/08 14:11:15;;;;;;;4.60;4.20;;;;;;;;;;5073124;28;20192;-54
2023/07/08 14:13:41;;;;;;;4.63;4.17;;;;;;;;;;5073502;28;20379;-54
2023/07/08 14:16:11;;;;;;;6.03;4.07;;;;;;;;;;5073285;28;20335;-54
2023/07/08 14:18:37;;;;;;;6.00;3.93;;;;;;;;;;5073440;28;20231;-54
2023/07/08 14:21:03;;;;;;;4.37;3.93;;;;;;;;;;5073340;28;20222;-54
2023/07/08 14:23:28;;;;;;;4.27;3.73;;;;;;;;;;5073541;28;20643;-54
2023/07/08 14:25:56;;;;;;;5.70;3.97;;;;;;;;;;5073127;28;20205;-54
2023/07/08 14:28:22;;;;;;;4.70;3.77;;;;;;;;;;5073351;28;20215;-54
2023/07/08 14:30:48;;;;;;;4.17;3.77;;;;;;;;;;5073263;28;20258;-54
2023/07/08 14:33:14;;;;;;;4.10;3.70;;;;;;;;;;5072916;28;20281;-53
2023/07/08 14:35:41;;;;;;;5.30;3.70;;;;;;;;;;5071916;28;20211;-54
2023/07/08 14:38:10;;;;;;;5.47;3.97;;;;;;;;;;5072949;28;20226;-53
2023/07/08 14:40:36;;;;;;;4.43;4.03;;;;;;;;;;5073024;28;20293;-53
2023/07/08 14:43:05;;;;;;;3.90;3.50;;;;;;;;;;5072694;28;20258;-53